createdAt,value
2018-03-07T00:00:27.768Z,72.98
2018-03-07T00:02:54.019Z,72.89
2018-03-07T00:05:20.261Z,73.07
2018-03-07T00:07:46.612Z,73.10
2018-03-07T00:10:12.843Z,73.39
2018-03-07T00:12:39.120Z,73.40
2018-03-07T00:15:05.371Z,73.28
2018-03-07T00:17:31.664Z,73.40
2018-03-07T00:19:57.908Z,73.72
2018-03-07T00:22:24.137Z,73.76
2018-03-07T00:24:50.384Z,73.64
2018-03-07T00:27:16.620Z,73.62
2018-03-07T00:29:42.885Z,73.43
2018-03-07T00:32:09.277Z,73.21
2018-03-07T00:34:35.523Z,73.08
2018-03-07T00:37:01.747Z,73.08
2018-03-07T00:39:27.992Z,73.40
2018-03-07T00:41:54.221Z,73.41
2018-03-07T00:44:20.515Z,73.58
2018-03-07T00:46:46.744Z,73.94
2018-03-07T00:49:12.964Z,73.91
2018-03-07T00:51:39.231Z,73.95
2018-03-07T00:54:05.460Z,73.86
2018-03-07T00:56:31.716Z,73.78
2018-03-07T00:58:57.959Z,73.40
2018-03-07T01:01:25.160Z,73.60
2018-03-07T01:03:51.399Z,73.58
2018-03-07T01:06:17.644Z,73.68
2018-03-07T01:08:43.880Z,73.66
2018-03-07T01:11:10.145Z,73.61
2018-03-07T01:13:36.375Z,73.73
2018-03-07T01:16:02.615Z,73.71
2018-03-07T01:18:28.872Z,74.08
2018-03-07T01:20:55.280Z,73.50
2018-03-07T01:23:21.526Z,73.87
2018-03-07T01:25:47.751Z,73.91
2018-03-07T01:28:14.001Z,73.80
2018-03-07T01:30:40.282Z,73.65
2018-03-07T01:33:06.544Z,73.69
2018-03-07T01:35:32.768Z,73.64
2018-03-07T01:37:59.000Z,73.87
2018-03-07T01:40:25.252Z,73.90
2018-03-07T01:42:51.481Z,74.19
2018-03-07T01:45:17.735Z,74.07
2018-03-07T01:47:44.002Z,74.44
2018-03-07T01:50:10.275Z,74.25
2018-03-07T01:52:36.499Z,74.13
2018-03-07T01:55:02.763Z,74.41
2018-03-07T01:57:28.992Z,74.49
2018-03-07T01:59:55.248Z,74.54
2018-03-07T02:02:21.483Z,74.47
2018-03-07T02:04:47.718Z,74.34
2018-03-07T02:07:13.975Z,74.09
2018-03-07T02:09:40.199Z,73.97
2018-03-07T02:12:06.455Z,74.32
2018-03-07T02:14:32.680Z,74.26
2018-03-07T02:16:58.924Z,74.32
2018-03-07T02:19:25.145Z,74.12
2018-03-07T02:21:51.400Z,73.92
2018-03-07T02:24:17.622Z,74.07
2018-03-07T02:26:43.855Z,74.19
2018-03-07T02:29:10.104Z,74.09
2018-03-07T02:31:36.352Z,74.04
2018-03-07T02:34:02.617Z,73.90
2018-03-07T02:36:32.978Z,73.90
2018-03-07T02:38:59.445Z,74.10
2018-03-07T02:41:25.679Z,74.18
2018-03-07T02:43:51.923Z,73.82
2018-03-07T02:46:18.179Z,74.10
2018-03-07T02:48:44.435Z,74.22
2018-03-07T02:51:10.658Z,74.53
2018-03-07T02:53:36.882Z,74.77
2018-03-07T02:56:03.119Z,74.77
2018-03-07T02:58:29.340Z,74.90
2018-03-07T03:00:55.593Z,74.93
2018-03-07T03:03:21.822Z,74.88
2018-03-07T03:05:48.075Z,74.86
2018-03-07T03:08:14.316Z,74.72
2018-03-07T03:10:40.564Z,74.62
2018-03-07T03:13:06.802Z,74.35
2018-03-07T03:15:33.055Z,74.15
2018-03-07T03:17:59.279Z,74.26
2018-03-07T03:20:25.508Z,74.26
2018-03-07T03:22:51.756Z,74.22
2018-03-07T03:25:17.984Z,74.18
2018-03-07T03:27:44.227Z,74.25
2018-03-07T03:30:10.461Z,74.07
2018-03-07T03:32:36.704Z,73.88
2018-03-07T03:35:03.103Z,73.67
2018-03-07T03:37:29.344Z,73.68
2018-03-07T03:39:55.560Z,73.71
2018-03-07T03:42:21.832Z,73.72
2018-03-07T03:44:48.055Z,73.52
2018-03-07T03:47:14.277Z,73.43
2018-03-07T03:49:40.519Z,73.58
2018-03-07T03:52:06.739Z,73.58
2018-03-07T03:54:32.991Z,73.32
2018-03-07T03:56:59.215Z,73.58
2018-03-07T03:59:25.451Z,73.96
2018-03-07T04:01:51.675Z,74.15
2018-03-07T04:04:17.912Z,74.32
2018-03-07T04:06:44.144Z,74.30
2018-03-07T04:09:10.370Z,74.25
2018-03-07T04:11:36.617Z,74.26
2018-03-07T04:14:02.851Z,73.97
2018-03-07T04:16:29.091Z,73.43
2018-03-07T04:18:55.314Z,73.46
2018-03-07T04:21:21.562Z,73.33
2018-03-07T04:23:47.776Z,73.35
2018-03-07T04:26:14.016Z,73.53
2018-03-07T04:28:40.239Z,73.44
2018-03-07T04:31:06.521Z,73.69
2018-03-07T04:33:32.743Z,74.01
2018-03-07T04:35:58.972Z,74.05
2018-03-07T04:38:25.229Z,74.04
2018-03-07T04:40:51.468Z,73.71
2018-03-07T04:43:17.708Z,73.37
2018-03-07T04:45:43.937Z,73.42
2018-03-07T04:48:10.173Z,73.61
2018-03-07T04:50:36.387Z,73.90
2018-03-07T04:53:02.631Z,73.80
2018-03-07T04:55:28.847Z,73.71
2018-03-07T04:57:55.104Z,73.66
2018-03-07T05:00:21.331Z,73.64
2018-03-07T05:02:47.584Z,73.67
2018-03-07T05:05:13.847Z,73.55
2018-03-07T05:07:40.080Z,73.23
2018-03-07T05:10:06.319Z,73.14
2018-03-07T05:12:32.539Z,73.65
2018-03-07T05:14:58.811Z,73.35
2018-03-07T05:17:25.024Z,73.41
2018-03-07T05:19:51.272Z,73.83
2018-03-07T05:22:17.500Z,74.16
2018-03-07T05:24:43.750Z,74.11
2018-03-07T05:27:09.971Z,73.92
2018-03-07T05:29:36.216Z,73.87
2018-03-07T05:32:02.496Z,73.68
2018-03-07T05:34:28.724Z,73.69
2018-03-07T05:36:54.956Z,73.66
2018-03-07T05:39:21.203Z,73.91
2018-03-07T05:41:47.452Z,73.95
2018-03-07T05:44:13.680Z,73.64
2018-03-07T05:46:39.938Z,73.40
2018-03-07T05:49:06.163Z,73.49
2018-03-07T05:51:32.399Z,73.88
2018-03-07T05:53:58.783Z,73.99
2018-03-07T05:56:25.015Z,74.19
2018-03-07T05:58:51.268Z,73.92
2018-03-07T06:01:17.500Z,73.82
2018-03-07T06:03:43.748Z,73.85
2018-03-07T06:06:09.971Z,73.58
2018-03-07T06:08:36.223Z,73.40
2018-03-07T06:11:02.461Z,73.36
2018-03-07T06:13:28.720Z,72.96
2018-03-07T06:15:54.967Z,72.74
2018-03-07T06:18:21.191Z,72.39
2018-03-07T06:20:47.448Z,71.88
2018-03-07T06:23:13.673Z,71.26
2018-03-07T06:25:39.907Z,71.11
2018-03-07T06:28:06.163Z,70.82
2018-03-07T06:30:32.404Z,70.65
2018-03-07T06:32:58.640Z,70.49
2018-03-07T06:35:24.900Z,70.06
2018-03-07T06:37:51.132Z,69.42
2018-03-07T06:40:17.389Z,69.31
2018-03-07T06:42:43.639Z,69.10
2018-03-07T06:45:09.866Z,68.21
2018-03-07T06:47:36.136Z,67.84
2018-03-07T06:50:02.410Z,67.40
2018-03-07T06:52:28.641Z,67.47
2018-03-07T06:54:54.856Z,67.45
2018-03-07T06:57:21.085Z,67.15
2018-03-07T06:59:47.308Z,67.06
2018-03-07T07:02:13.548Z,66.65
2018-03-07T07:04:39.764Z,66.40
2018-03-07T07:07:05.979Z,66.06
2018-03-07T07:09:32.216Z,65.85
2018-03-07T07:11:58.456Z,65.42
2018-03-07T07:14:24.726Z,65.46
2018-03-07T07:16:50.946Z,64.89
2018-03-07T07:19:17.188Z,64.76
2018-03-07T07:21:43.528Z,64.44
2018-03-07T07:24:09.760Z,64.87
2018-03-07T07:26:35.976Z,64.80
2018-03-07T07:29:02.224Z,64.24
2018-03-07T07:31:28.466Z,64.19
2018-03-07T07:33:54.680Z,64.18
2018-03-07T07:36:20.920Z,64.18
2018-03-07T07:38:47.144Z,64.02
2018-03-07T07:41:13.380Z,64.10
2018-03-07T07:43:39.587Z,64.16
2018-03-07T07:46:05.824Z,64.26
2018-03-07T07:48:32.071Z,64.32
2018-03-07T07:50:58.308Z,64.22
2018-03-07T07:53:24.531Z,64.21
2018-03-07T07:55:50.787Z,64.18
2018-03-07T07:58:18.148Z,63.61
2018-03-07T08:00:44.402Z,63.18
2018-03-07T08:03:10.612Z,62.94
2018-03-07T08:05:36.828Z,62.81
2018-03-07T08:08:03.113Z,62.89
2018-03-07T08:10:29.336Z,62.45
2018-03-07T08:12:55.568Z,62.22
2018-03-07T08:15:21.784Z,61.78
2018-03-07T08:17:48.017Z,61.74
2018-03-07T08:20:14.244Z,61.26
2018-03-07T08:22:40.495Z,60.99
2018-03-07T08:25:06.712Z,60.83
2018-03-07T08:27:32.928Z,60.38
2018-03-07T08:29:59.196Z,60.10
2018-03-07T08:32:25.415Z,59.46
2018-03-07T08:34:51.692Z,59.33
2018-03-07T08:37:17.911Z,59.07
2018-03-07T08:39:44.160Z,58.70
2018-03-07T08:42:10.412Z,58.90
2018-03-07T08:44:36.666Z,58.88
2018-03-07T08:47:02.912Z,59.06
2018-03-07T08:49:29.127Z,58.93
2018-03-07T08:51:55.365Z,58.68
2018-03-07T08:54:21.619Z,59.37
2018-03-07T08:56:47.860Z,59.16
2018-03-07T08:59:14.075Z,59.39
2018-03-07T09:01:40.311Z,59.72
2018-03-07T09:04:06.532Z,60.01
2018-03-07T09:06:32.771Z,59.70
2018-03-07T09:08:59.007Z,59.93
2018-03-07T09:11:25.248Z,60.84
2018-03-07T09:13:51.471Z,60.82
2018-03-07T09:16:17.688Z,61.56
2018-03-07T09:18:43.944Z,62.32
2018-03-07T09:21:10.151Z,62.48
2018-03-07T09:23:36.397Z,63.49
2018-03-07T09:26:02.632Z,63.17
2018-03-07T09:28:28.888Z,63.39
2018-03-07T09:30:55.104Z,63.65
2018-03-07T09:33:21.343Z,64.15
2018-03-07T09:35:47.585Z,64.34
2018-03-07T09:38:13.852Z,64.46
2018-03-07T09:40:40.071Z,64.46
2018-03-07T09:43:06.313Z,65.22
2018-03-07T09:45:32.557Z,65.18
2018-03-07T09:47:58.776Z,65.72
2018-03-07T09:50:25.027Z,65.86
2018-03-07T09:52:51.236Z,65.54
2018-03-07T09:55:17.487Z,65.26
2018-03-07T09:57:43.712Z,65.36
2018-03-07T10:00:09.945Z,65.16
2018-03-07T10:02:36.156Z,65.54
2018-03-07T10:05:02.452Z,65.89
2018-03-07T10:07:28.672Z,66.50
2018-03-07T10:09:54.885Z,66.64
2018-03-07T10:12:21.133Z,66.61
2018-03-07T10:14:47.375Z,66.90
2018-03-07T10:17:13.621Z,66.52
2018-03-07T10:19:39.847Z,66.54
2018-03-07T10:22:06.194Z,67.21
2018-03-07T10:24:32.413Z,67.47
2018-03-07T10:26:58.668Z,67.43
2018-03-07T10:29:24.899Z,67.64
2018-03-07T10:31:51.124Z,67.81
2018-03-07T10:34:17.412Z,67.09
2018-03-07T10:36:43.631Z,67.20
2018-03-07T10:39:09.890Z,66.69
2018-03-07T10:41:36.118Z,66.67
2018-03-07T10:44:02.374Z,66.97
2018-03-07T10:46:28.592Z,67.19
2018-03-07T10:48:54.836Z,67.61
2018-03-07T10:51:21.057Z,68.03
2018-03-07T10:53:47.319Z,68.34
2018-03-07T10:56:13.546Z,68.00
2018-03-07T10:58:39.766Z,68.36
2018-03-07T11:01:06.020Z,68.81
2018-03-07T11:03:32.250Z,69.64
2018-03-07T11:05:58.484Z,69.75
2018-03-07T11:08:24.712Z,69.56
2018-03-07T11:10:50.972Z,69.47
2018-03-07T11:13:17.193Z,69.81
2018-03-07T11:15:43.438Z,69.76
2018-03-07T11:18:09.700Z,70.11
2018-03-07T11:20:35.976Z,70.34
2018-03-07T11:23:02.184Z,70.60
2018-03-07T11:25:28.438Z,70.05
2018-03-07T11:27:54.668Z,69.91
2018-03-07T11:30:20.888Z,70.26
2018-03-07T11:32:47.129Z,70.26
2018-03-07T11:35:13.363Z,70.18
2018-03-07T11:37:39.605Z,69.77
2018-03-07T11:40:05.828Z,70.18
2018-03-07T11:42:32.093Z,69.90
2018-03-07T11:44:58.358Z,70.16
2018-03-07T11:47:24.548Z,69.65
2018-03-07T11:49:50.784Z,69.56
2018-03-07T11:52:17.001Z,69.56
2018-03-07T11:54:43.243Z,69.86
2018-03-07T11:57:09.465Z,69.77
2018-03-07T11:59:35.708Z,69.64
2018-03-07T12:02:01.936Z,69.27
2018-03-07T12:04:28.178Z,68.80
2018-03-07T12:06:54.404Z,68.36
2018-03-07T12:09:20.685Z,68.37
2018-03-07T12:11:46.917Z,68.67
2018-03-07T12:14:13.174Z,69.21
2018-03-07T12:16:39.401Z,69.17
2018-03-07T12:19:05.619Z,69.39
2018-03-07T12:21:31.849Z,69.34
2018-03-07T12:23:58.136Z,69.44
2018-03-07T12:26:24.389Z,69.25
2018-03-07T12:28:50.611Z,68.90
2018-03-07T12:31:16.853Z,68.40
2018-03-07T12:33:43.076Z,68.04
2018-03-07T12:36:09.332Z,67.58
2018-03-07T12:38:35.549Z,67.38
2018-03-07T12:41:01.772Z,66.88
2018-03-07T12:43:28.010Z,65.81
2018-03-07T12:45:54.248Z,64.71
2018-03-07T12:48:20.492Z,64.54
2018-03-07T12:50:46.704Z,64.45
2018-03-07T12:53:12.939Z,64.46
2018-03-07T12:55:39.154Z,64.73
2018-03-07T12:58:05.408Z,64.74
2018-03-07T13:00:31.656Z,64.05
2018-03-07T13:02:57.880Z,63.39
2018-03-07T13:05:24.124Z,62.75
2018-03-07T13:07:50.341Z,62.69
2018-03-07T13:10:16.584Z,63.57
2018-03-07T13:12:42.805Z,63.70
2018-03-07T13:15:09.040Z,63.45
2018-03-07T13:17:35.261Z,63.54
2018-03-07T13:20:01.513Z,63.52
2018-03-07T13:22:27.772Z,62.45
2018-03-07T13:24:54.027Z,58.06
2018-03-07T13:27:20.256Z,51.90
2018-03-07T13:29:46.490Z,50.30
2018-03-07T13:32:12.740Z,51.10
2018-03-07T13:34:38.979Z,52.43
2018-03-07T13:37:05.219Z,53.34
2018-03-07T13:39:31.460Z,54.10
2018-03-07T13:41:57.714Z,52.39
2018-03-07T13:44:23.948Z,50.26
2018-03-07T13:46:50.213Z,50.73
2018-03-07T13:49:16.439Z,49.21
2018-03-07T13:51:42.668Z,44.99
2018-03-07T13:54:08.921Z,42.15
2018-03-07T13:56:35.132Z,40.79
2018-03-07T13:59:01.396Z,39.94
2018-03-07T14:01:27.628Z,41.96
2018-03-07T14:03:53.867Z,39.05
2018-03-07T14:06:20.084Z,35.44
2018-03-07T14:08:46.329Z,35.08
2018-03-07T14:11:12.552Z,34.35
2018-03-07T14:13:38.819Z,33.98
2018-03-07T14:16:05.073Z,33.36
2018-03-07T14:18:31.328Z,33.23
2018-03-07T14:20:57.609Z,34.28
2018-03-07T14:23:23.855Z,34.09
2018-03-07T14:25:50.116Z,33.65
2018-03-07T14:28:16.360Z,34.93
2018-03-07T14:30:42.604Z,37.18
2018-03-07T14:33:08.839Z,35.84
2018-03-07T14:35:35.088Z,34.04
2018-03-07T14:38:02.568Z,33.42
2018-03-07T14:40:28.828Z,34.44
2018-03-07T14:42:55.052Z,35.14
2018-03-07T14:45:21.272Z,34.65
2018-03-07T14:47:47.519Z,35.54
2018-03-07T14:50:13.740Z,35.45
2018-03-07T14:52:39.991Z,33.96
2018-03-07T14:55:06.261Z,32.50
2018-03-07T14:57:32.475Z,32.58
2018-03-07T14:59:58.708Z,33.05
2018-03-07T15:02:24.957Z,33.72
2018-03-07T15:04:51.176Z,34.27
2018-03-07T15:07:17.400Z,34.60
2018-03-07T15:09:43.649Z,34.55
2018-03-07T15:12:09.888Z,36.80
2018-03-07T15:14:36.136Z,38.59
2018-03-07T15:17:02.352Z,42.84
2018-03-07T15:19:28.601Z,46.19
2018-03-07T15:21:54.815Z,48.27
2018-03-07T15:24:21.065Z,49.32
2018-03-07T15:26:47.292Z,51.06
2018-03-07T15:29:13.555Z,52.02
2018-03-07T15:31:39.785Z,52.93
2018-03-07T15:34:06.013Z,53.57
2018-03-07T15:36:32.264Z,54.24
2018-03-07T15:38:58.523Z,55.19
2018-03-07T15:41:24.769Z,56.05
2018-03-07T15:43:50.998Z,56.49
2018-03-07T15:46:17.231Z,56.87
2018-03-07T15:48:43.452Z,57.21
2018-03-07T15:51:09.709Z,57.51
2018-03-07T15:53:35.932Z,57.63
2018-03-07T15:56:02.184Z,57.84
2018-03-07T15:58:28.445Z,57.98
2018-03-07T16:00:54.687Z,58.28
2018-03-07T16:03:20.937Z,58.50
2018-03-07T16:05:47.164Z,58.55
2018-03-07T16:08:13.399Z,58.69
2018-03-07T16:10:39.621Z,58.95
2018-03-07T16:13:05.880Z,59.43
2018-03-07T16:15:32.124Z,59.37
2018-03-07T16:17:58.352Z,59.62
2018-03-07T16:20:24.644Z,59.66
2018-03-07T16:22:50.835Z,59.59
2018-03-07T16:25:17.076Z,59.77
2018-03-07T16:27:43.312Z,60.01
2018-03-07T16:30:09.552Z,60.09
2018-03-07T16:32:35.788Z,60.08
2018-03-07T16:35:02.041Z,60.31
2018-03-07T16:37:28.260Z,60.63
2018-03-07T16:39:54.490Z,60.54
2018-03-07T16:42:20.736Z,60.92
2018-03-07T16:44:47.012Z,61.15
2018-03-07T16:47:13.253Z,61.15
2018-03-07T16:49:39.512Z,61.20
2018-03-07T16:52:05.777Z,61.35
2018-03-07T16:54:32.003Z,61.47
2018-03-07T16:56:58.254Z,61.63
2018-03-07T16:59:24.512Z,61.91
2018-03-07T17:01:50.759Z,62.05
2018-03-07T17:04:17.025Z,62.66
2018-03-07T17:06:43.237Z,62.51
2018-03-07T17:09:09.581Z,62.63
2018-03-07T17:11:36.165Z,62.97
2018-03-07T17:14:02.582Z,62.99
2018-03-07T17:16:28.866Z,63.41
2018-03-07T17:18:55.136Z,63.51
2018-03-07T17:21:21.356Z,63.45
2018-03-07T17:23:48.635Z,63.49
2018-03-07T17:26:14.888Z,63.85
2018-03-07T17:28:41.156Z,63.91
2018-03-07T17:31:07.360Z,64.18
2018-03-07T17:33:33.591Z,64.18
2018-03-07T17:35:59.840Z,64.41
2018-03-07T17:38:26.076Z,64.59
2018-03-07T17:40:52.325Z,64.38
2018-03-07T17:43:18.560Z,64.23
2018-03-07T17:45:44.808Z,64.32
2018-03-07T17:48:11.056Z,64.16
2018-03-07T17:50:37.283Z,63.93
2018-03-07T17:53:03.524Z,63.78
2018-03-07T17:55:29.787Z,63.77
2018-03-07T17:57:56.036Z,63.93
2018-03-07T18:00:22.256Z,64.09
2018-03-07T18:02:48.519Z,63.79
2018-03-07T18:05:14.767Z,63.81
2018-03-07T18:07:41.046Z,64.13
2018-03-07T18:10:07.304Z,64.14
2018-03-07T18:12:33.532Z,64.81
2018-03-07T18:14:59.775Z,64.48
2018-03-07T18:17:25.992Z,64.98
2018-03-07T18:19:52.240Z,65.01
2018-03-07T18:22:18.489Z,65.08
2018-03-07T18:24:44.741Z,64.97
2018-03-07T18:27:10.972Z,65.30
2018-03-07T18:29:37.216Z,65.24
2018-03-07T18:32:03.445Z,65.08
2018-03-07T18:34:29.733Z,64.64
2018-03-07T18:36:55.948Z,64.54
2018-03-07T18:39:22.190Z,64.49
2018-03-07T18:41:48.432Z,64.44
2018-03-07T18:44:14.796Z,64.57
2018-03-07T18:46:41.040Z,64.04
2018-03-07T18:49:07.430Z,63.96
2018-03-07T18:51:33.708Z,63.71
2018-03-07T18:53:59.941Z,63.49
2018-03-07T18:56:26.155Z,63.54
2018-03-07T18:58:52.616Z,63.26
2018-03-07T19:01:18.838Z,63.01
2018-03-07T19:03:45.076Z,63.19
2018-03-07T19:06:11.374Z,63.02
2018-03-07T19:08:37.646Z,62.74
2018-03-07T19:11:03.900Z,62.66
2018-03-07T19:13:30.153Z,62.47
2018-03-07T19:15:56.381Z,62.19
2018-03-07T19:18:22.646Z,61.89
2018-03-07T19:20:48.884Z,61.94
2018-03-07T19:23:15.107Z,61.85
2018-03-07T19:25:41.358Z,61.67
2018-03-07T19:28:07.603Z,61.52
2018-03-07T19:30:33.844Z,61.33
2018-03-07T19:33:00.081Z,61.30
2018-03-07T19:35:26.337Z,61.07
2018-03-07T19:37:52.567Z,60.86
2018-03-07T19:40:18.828Z,60.90
2018-03-07T19:42:45.065Z,60.93
2018-03-07T19:45:11.357Z,60.87
2018-03-07T19:47:37.603Z,60.77
2018-03-07T19:50:03.881Z,60.61
2018-03-07T19:52:30.116Z,60.41
2018-03-07T19:54:56.336Z,60.19
2018-03-07T19:57:22.669Z,59.89
2018-03-07T19:59:48.930Z,59.76
2018-03-07T20:02:15.161Z,59.58
2018-03-07T20:04:41.427Z,59.25
2018-03-07T20:07:07.675Z,59.14
2018-03-07T20:09:33.925Z,59.53
2018-03-07T20:12:00.151Z,59.41
2018-03-07T20:14:26.400Z,59.63
2018-03-07T20:16:52.623Z,59.35
2018-03-07T20:19:18.884Z,59.12
2018-03-07T20:21:45.112Z,59.25
2018-03-07T20:24:11.349Z,59.18
2018-03-07T20:26:40.883Z,59.20
2018-03-07T20:29:07.380Z,59.23
2018-03-07T20:31:46.145Z,59.39
2018-03-07T20:34:12.470Z,59.29
2018-03-07T20:36:38.872Z,59.21
2018-03-07T20:39:05.140Z,59.11
2018-03-07T20:41:31.743Z,59.02
2018-03-07T20:43:58.025Z,58.83
2018-03-07T20:46:24.536Z,58.97
2018-03-07T20:48:50.843Z,58.84
2018-03-07T20:51:17.072Z,59.00
2018-03-07T20:53:43.369Z,58.73
2018-03-07T20:56:09.834Z,58.81
2018-03-07T20:58:36.200Z,58.88
2018-03-07T21:01:02.476Z,58.57
2018-03-07T21:03:29.060Z,58.53
2018-03-07T21:05:55.348Z,58.29
2018-03-07T21:08:21.844Z,58.59
2018-03-07T21:10:48.190Z,58.41
2018-03-07T21:13:14.431Z,58.24
2018-03-07T21:15:40.834Z,58.27
2018-03-07T21:18:07.096Z,58.31
2018-03-07T21:20:33.598Z,58.13
2018-03-07T21:22:59.843Z,58.18
2018-03-07T21:25:26.333Z,57.97
2018-03-07T21:27:52.662Z,57.77
2018-03-07T21:30:19.033Z,57.92
2018-03-07T21:32:45.446Z,57.94
2018-03-07T21:35:11.704Z,57.85
2018-03-07T21:37:38.022Z,57.83
2018-03-07T21:40:04.243Z,57.72
2018-03-07T21:42:30.711Z,57.71
2018-03-07T21:44:56.974Z,57.76
2018-03-07T21:47:23.557Z,57.45
2018-03-07T21:49:49.897Z,57.39
2018-03-07T21:52:16.247Z,57.47
2018-03-07T21:54:42.517Z,57.62
2018-03-07T21:57:08.752Z,57.45
2018-03-07T21:59:35.105Z,57.43
2018-03-07T22:02:01.534Z,57.46
2018-03-07T22:04:27.777Z,57.65
2018-03-07T22:06:54.173Z,57.63
2018-03-07T22:09:20.435Z,57.64
2018-03-07T22:11:46.923Z,57.77
2018-03-07T22:14:13.153Z,58.09
2018-03-07T22:16:39.591Z,58.07
2018-03-07T22:19:05.838Z,57.94
2018-03-07T22:21:32.392Z,57.97
2018-03-07T22:23:58.703Z,57.73
2018-03-07T22:26:24.986Z,57.80
2018-03-07T22:28:51.535Z,57.59
2018-03-07T22:31:17.775Z,57.29
2018-03-07T22:33:44.151Z,57.16
2018-03-07T22:36:10.432Z,57.26
2018-03-07T22:38:36.916Z,57.03
2018-03-07T22:41:03.324Z,57.34
2018-03-07T22:43:29.668Z,57.39
2018-03-07T22:45:56.203Z,57.27
2018-03-07T22:48:22.443Z,57.70
2018-03-07T22:50:48.929Z,57.65
2018-03-07T22:53:15.285Z,57.65
2018-03-07T22:55:41.526Z,57.56
2018-03-07T22:58:08.001Z,57.79
2018-03-07T23:00:40.224Z,57.94
2018-03-07T23:03:06.889Z,58.09
2018-03-07T23:05:33.341Z,57.83
2018-03-07T23:07:59.653Z,57.75
2018-03-07T23:10:26.237Z,57.89
2018-03-07T23:12:52.464Z,57.75
2018-03-07T23:15:19.016Z,57.61
2018-03-07T23:17:45.346Z,58.20
2018-03-07T23:20:11.648Z,58.00
2018-03-07T23:22:37.981Z,58.23
2018-03-07T23:25:04.296Z,58.26
2018-03-07T23:27:30.744Z,58.07
2018-03-07T23:29:56.981Z,58.51
2018-03-07T23:32:23.519Z,58.87
2018-03-07T23:34:49.755Z,59.04
2018-03-07T23:37:16.276Z,59.13
2018-03-07T23:39:42.573Z,59.43
2018-03-07T23:42:09.457Z,59.29
2018-03-07T23:44:36.693Z,58.78
2018-03-07T23:47:03.379Z,58.90
2018-03-07T23:49:29.973Z,59.28
2018-03-07T23:51:56.267Z,59.45
2018-03-07T23:54:22.705Z,59.49
2018-03-07T23:56:49.080Z,59.31
2018-03-07T23:59:15.730Z,59.13
